Time;durP1;ratioP1;P1;durP2;ratioP2;P2;SDS_P1;SDS_P2;PMS_P1;PMS_P2;Temp;Humidity;BMP_temperature;BMP_pressure;BME280_temperature;BME280_humidity;BME280_pressure;Samples;Min_cycle;Max_cycle;Signal;HPM_P1;HPM_P2
2022/04/27 00:00:19;;;;;;;;;;;8.40;75.10;;;;;;6153296;23;20239;-81
2022/04/27 00:02:45;;;;;;;;;;;8.40;75.10;;;;;;6135126;23;19912;-82
2022/04/27 00:05:13;;;;;;;;;;;8.50;75.40;;;;;;6134418;23;19983;-83
2022/04/27 00:07:39;;;;;;;;;;;8.40;74.80;;;;;;6134299;23;19935;-82
2022/04/27 00:10:14;;;;;;;;;;;8.40;74.40;;;;;;6158909;23;19995;-81
2022/04/27 00:12:51;;;;;;;;;;;8.40;73.60;;;;;;6134261;23;19963;-82
2022/04/27 00:15:27;;;;;;;;;;;8.40;73.50;;;;;;6094218;23;19965;-81
2022/04/27 00:17:59;;;;;;;;;;;8.40;73.70;;;;;;6047259;23;19913;-82
2022/04/27 00:20:49;;;;;;;;;;;;;;;;;;;;;
2022/04/27 00:29:28;;;;;;;;;;;8.40;73.10;;;;;;6053160;23;19921;-80
2022/04/27 00:32:07;;;;;;;;;;;8.40;73.10;;;;;;6049038;23;19921;-81
2022/04/27 00:34:51;;;;;;;;;;;8.40;72.60;;;;;;6096230;23;19964;-80
2022/04/27 00:37:33;;;;;;;;;;;8.40;67.60;;;;;;6048769;23;19917;-80
2022/04/27 00:40:07;;;;;;;;;;;8.40;68.60;;;;;;6077048;23;19935;-82
2022/04/27 00:42:37;;;;;;;;;;;8.40;67.10;;;;;;6080008;23;19913;-80
2022/04/27 00:45:24;;;;;;;;;;;8.50;65.50;;;;;;6079639;23;19917;-78
2022/04/27 00:47:55;;;;;;;;;;;8.50;66.50;;;;;;6153058;23;20346;-80
2022/04/27 00:50:31;;;;;;;;;;;8.90;68.40;;;;;;6137140;23;20311;-80
2022/04/27 00:53:03;;;;;;;;;;;8.50;68.00;;;;;;6134863;23;20211;-80
2022/04/27 00:55:42;;;;;;;;;;;8.40;68.80;;;;;;6136707;23;20324;-79
2022/04/27 00:58:15;;;;;;;;;;;8.80;69.20;;;;;;6135976;23;19912;-81
2022/04/27 01:00:59;;;;;;;;;;;8.40;68.20;;;;;;6136680;23;19940;-79
2022/04/27 01:03:30;;;;;;;;;;;8.40;67.90;;;;;;6136313;23;19912;-80
2022/04/27 01:05:56;;;;;;;;;;;8.40;67.60;;;;;;6112504;23;19958;-81
2022/04/27 01:08:40;;;;;;;;;;;8.40;67.40;;;;;;6160669;23;20227;-82
2022/04/27 01:11:17;;;;;;;;;;;8.40;66.60;;;;;;6134477;23;19932;-80
2022/04/27 01:13:45;;;;;;;;;;;8.40;65.50;;;;;;6135484;23;19912;-81
2022/04/27 01:16:14;;;;;;;;;;;8.70;67.70;;;;;;6136973;23;19923;-80
2022/04/27 01:18:51;;;;;;;;;;;8.40;67.60;;;;;;6160483;23;19912;-82
2022/04/27 01:21:22;;;;;;;;;;;8.40;66.80;;;;;;6136041;23;19912;-80
2022/04/27 01:23:53;;;;;;;;;;;8.40;67.50;;;;;;6159892;23;19919;-82
2022/04/27 01:26:25;;;;;;;;;;;8.20;67.10;;;;;;6158951;23;19952;-82
2022/04/27 01:28:56;;;;;;;;;;;8.40;65.40;;;;;;6137197;23;19955;-80
2022/04/27 01:31:53;;;;;;;;;;;8.70;65.30;;;;;;6136451;23;19921;-82
2022/04/27 01:34:43;;;;;;;;;;;8.40;65.50;;;;;;6136172;23;19963;-82
2022/04/27 01:40:38;;;;;;;;;;;8.40;68.20;;;;;;6160570;23;19918;-81
2022/04/27 01:43:21;;;;;;;;;;;8.40;68.60;;;;;;6114250;23;20307;-80
2022/04/27 01:45:56;;;;;;;;;;;8.40;69.20;;;;;;6160492;23;20231;-82
2022/04/27 01:49:00;;;;;;;;;;;8.30;69.40;;;;;;6139480;23;19982;-83
2022/04/27 01:54:41;;;;;;;;;;;8.30;70.30;;;;;;6160156;23;20366;-82
2022/04/27 01:57:12;;;;;;;;;;;8.30;70.90;;;;;;6138276;23;19917;-82
2022/04/27 02:00:00;;;;;;;;;;;8.30;70.30;;;;;;6146334;23;19912;-83
2022/04/27 02:02:40;;;;;;;;;;;8.20;70.60;;;;;;6187969;23;19912;-79
2022/04/27 02:05:09;;;;;;;;;;;8.20;70.30;;;;;;6173538;23;20212;-82
2022/04/27 02:07:43;;;;;;;;;;;8.20;70.00;;;;;;6160696;23;19919;-82
2022/04/27 02:10:26;;;;;;;;;;;8.30;70.70;;;;;;6163192;23;19963;-81
2022/04/27 02:13:10;;;;;;;;;;;8.20;70.80;;;;;;6136986;23;20226;-80
2022/04/27 02:15:45;;;;;;;;;;;8.20;71.40;;;;;;6159597;23;20687;-80
2022/04/27 02:18:14;;;;;;;;;;;8.20;71.40;;;;;;6136075;23;19912;-82
2022/04/27 02:20:47;;;;;;;;;;;8.30;71.10;;;;;;6136539;23;19955;-81
2022/04/27 02:23:20;;;;;;;;;;;8.20;71.20;;;;;;6135404;23;19923;-81
2022/04/27 02:25:51;;;;;;;;;;;8.20;71.30;;;;;;6136764;23;19912;-82
2022/04/27 02:28:24;;;;;;;;;;;8.50;72.10;;;;;;6136627;23;19912;-80
2022/04/27 02:31:02;;;;;;;;;;;8.30;70.80;;;;;;6161834;23;19912;-82
2022/04/27 02:33:34;;;;;;;;;;;8.20;71.90;;;;;;6137223;23;19912;-82
2022/04/27 02:36:03;;;;;;;;;;;8.20;72.10;;;;;;6134534;23;20266;-82
2022/04/27 02:38:50;;;;;;;;;;;8.20;72.30;;;;;;6137768;23;19983;-81
2022/04/27 02:41:16;;;;;;;;;;;8.20;71.00;;;;;;6135603;23;19916;-81
2022/04/27 02:43:49;;;;;;;;;;;8.30;71.20;;;;;;6129878;23;20028;-80
2022/04/27 02:46:23;;;;;;;;;;;8.20;71.40;;;;;;6104777;23;19912;-81
2022/04/27 02:51:56;;;;;;;;;;;8.20;71.30;;;;;;6129884;23;19920;-81
2022/04/27 02:57:30;;;;;;;;;;;8.20;71.80;;;;;;6154079;23;20297;-82
2022/04/27 02:59:58;;;;;;;;;;;8.20;72.10;;;;;;6129715;23;19924;-82
2022/04/27 03:05:47;;;;;;;;;;;8.20;72.80;;;;;;6026116;23;19921;-80
2022/04/27 03:08:16;;;;;;;;;;;8.30;72.30;;;;;;6043747;23;19914;-80
2022/04/27 03:10:56;;;;;;;;;;;8.20;72.50;;;;;;6050046;23;20419;-81
2022/04/27 03:13:32;;;;;;;;;;;8.20;72.80;;;;;;6055532;23;20350;-81
2022/04/27 03:16:33;;;;;;;;;;;8.30;72.30;;;;;;6096867;23;19924;-76
2022/04/27 03:19:28;;;;;;;;;;;8.30;72.50;;;;;;6109951;23;20005;-80
2022/04/27 03:22:22;;;;;;;;;;;8.20;70.70;;;;;;6095614;23;19913;-82
2022/04/27 03:25:16;;;;;;;;;;;8.20;71.10;;;;;;6094909;23;19920;-81
2022/04/27 03:27:51;;;;;;;;;;;8.30;72.00;;;;;;6091075;23;19913;-80
2022/04/27 03:30:28;;;;;;;;;;;8.50;72.80;;;;;;6072099;23;20004;-81
2022/04/27 03:33:04;;;;;;;;;;;8.20;73.00;;;;;;6115716;23;19955;-82
2022/04/27 03:35:36;;;;;;;;;;;8.20;74.00;;;;;;6137184;23;19959;-81
2022/04/27 03:38:08;;;;;;;;;;;8.20;74.70;;;;;;6136032;23;19983;-82
2022/04/27 03:40:37;;;;;;;;;;;8.20;75.50;;;;;;6137059;23;19913;-81
2022/04/27 03:43:29;;;;;;;;;;;8.20;75.50;;;;;;6137459;23;19920;-82
2022/04/27 03:46:07;;;;;;;;;;;8.20;76.30;;;;;;6136630;23;20327;-81
2022/04/27 03:48:41;;;;;;;;;;;8.20;76.30;;;;;;6136654;23;20311;-82
2022/04/27 03:51:29;;;;;;;;;;;;;;;;;;;;;
2022/04/27 03:54:07;;;;;;;;;;;8.20;77.00;;;;;;6161193;23;19912;-82
2022/04/27 03:56:43;;;;;;;;;;;8.20;76.90;;;;;;6160506;23;19923;-81
2022/04/27 03:59:11;;;;;;;;;;;8.10;77.50;;;;;;6136551;23;19942;-81
2022/04/27 04:01:42;;;;;;;;;;;8.20;78.50;;;;;;6136673;23;19943;-80
2022/04/27 04:04:11;;;;;;;;;;;8.10;77.40;;;;;;6138592;23;20324;-80
2022/04/27 04:06:45;;;;;;;;;;;8.30;77.30;;;;;;6163176;23;19965;-80
2022/04/27 04:09:18;;;;;;;;;;;8.10;77.30;;;;;;6163302;23;20269;-80
2022/04/27 04:11:50;;;;;;;;;;;8.30;77.50;;;;;;6148526;23;19935;-81
2022/04/27 04:14:30;;;;;;;;;;;8.30;76.80;;;;;;6166760;23;19931;-81
2022/04/27 04:16:56;;;;;;;;;;;8.20;77.00;;;;;;6164817;23;19916;-82
2022/04/27 04:19:24;;;;;;;;;;;8.20;77.10;;;;;;6147274;23;19918;-80
2022/04/27 04:30:58;;;;;;;;;;;8.20;76.70;;;;;;6186520;23;19935;-79
2022/04/27 04:33:38;;;;;;;;;;;8.20;77.30;;;;;;6137982;23;20329;-80
2022/04/27 04:36:04;;;;;;;;;;;8.20;77.50;;;;;;6136333;23;19991;-81
2022/04/27 04:41:38;;;;;;;;;;;8.20;77.40;;;;;;6157373;23;19919;-83
2022/04/27 04:44:15;;;;;;;;;;;8.20;77.20;;;;;;6161762;23;19988;-82
2022/04/27 04:46:54;;;;;;;;;;;8.20;76.80;;;;;;6163943;23;19916;-81
2022/04/27 04:49:19;;;;;;;;;;;8.30;76.30;;;;;;6164666;23;19916;-82
2022/04/27 04:51:53;;;;;;;;;;;8.30;76.30;;;;;;6137790;23;19916;-80
2022/04/27 04:58:10;;;;;;;;;;;8.30;76.20;;;;;;6189495;23;19923;-81
2022/04/27 05:00:50;;;;;;;;;;;8.20;75.80;;;;;;6020142;23;19913;-80
2022/04/27 05:04:06;;;;;;;;;;;8.30;75.30;;;;;;5972599;23;19914;-81
2022/04/27 05:10:01;;;;;;;;;;;8.30;76.70;;;;;;5986161;23;20298;-81
2022/04/27 05:12:52;;;;;;;;;;;8.50;77.20;;;;;;5995008;23;19918;-81
2022/04/27 05:15:47;;;;;;;;;;;8.30;77.40;;;;;;6021883;23;20247;-81
2022/04/27 05:18:36;;;;;;;;;;;8.20;78.50;;;;;;6042885;23;19918;-81
2022/04/27 05:21:07;;;;;;;;;;;8.20;79.40;;;;;;6014884;23;19914;-81
2022/04/27 05:23:36;;;;;;;;;;;8.20;78.00;;;;;;6020450;23;19913;-82
2022/04/27 05:26:19;;;;;;;;;;;;;;;;;;;;;
2022/04/27 05:32:24;;;;;;;;;;;8.20;81.60;;;;;;6131870;23;20308;-81
2022/04/27 05:35:44;;;;;;;;;;;8.20;79.20;;;;;;6134749;23;19995;-79
2022/04/27 05:38:10;;;;;;;;;;;8.20;80.70;;;;;;6018979;23;19952;-79
2022/04/27 05:41:16;;;;;;;;;;;8.20;80.80;;;;;;6043220;23;20326;-81
2022/04/27 05:43:56;;;;;;;;;;;8.10;81.50;;;;;;6031156;23;19920;-78
2022/04/27 05:46:58;;;;;;;;;;;8.20;82.00;;;;;;6056745;23;19970;-80
2022/04/27 05:50:24;;;;;;;;;;;;;;;;;;;;;
2022/04/27 05:56:42;;;;;;;;;;;8.20;82.90;;;;;;6066566;23;19965;-82
2022/04/27 05:59:20;;;;;;;;;;;8.30;81.60;;;;;;6067352;23;19996;-80
2022/04/27 06:01:59;;;;;;;;;;;8.30;80.30;;;;;;6089285;23;20259;-80
2022/04/27 06:04:30;;;;;;;;;;;8.40;79.50;;;;;;6077858;23;19919;-79
2022/04/27 06:07:12;;;;;;;;;;;8.40;79.80;;;;;;6094958;23;19917;-81
2022/04/27 06:09:49;;;;;;;;;;;8.30;80.30;;;;;;6070884;23;19913;-82
2022/04/27 06:19:57;;;;;;;;;;;8.40;79.60;;;;;;6124838;23;19911;-81
2022/04/27 06:22:45;;;;;;;;;;;;;;;;;;;;;
2022/04/27 06:25:25;;;;;;;;;;;8.50;78.10;;;;;;6099803;23;19913;-80
2022/04/27 06:28:02;;;;;;;;;;;8.50;77.60;;;;;;6099304;23;20272;-79
2022/04/27 06:30:39;;;;;;;;;;;8.50;76.40;;;;;;6077328;23;19920;-80
2022/04/27 06:33:37;;;;;;;;;;;8.80;76.10;;;;;;6118831;23;20362;-80
2022/04/27 06:36:43;;;;;;;;;;;8.60;76.20;;;;;;6134038;23;20251;-80
2022/04/27 06:42:51;;;;;;;;;;;8.60;76.10;;;;;;6098225;23;19912;-81
2022/04/27 06:55:45;;;;;;;;;;;8.70;74.60;;;;;;6094528;23;19952;-76
2022/04/27 06:58:11;;;;;;;;;;;8.70;74.80;;;;;;6070772;23;19925;-76
2022/04/27 07:00:49;;;;;;;;;;;8.90;75.10;;;;;;6142359;23;19912;-82
2022/04/27 07:10:19;;;;;;;;;;;9.00;71.40;;;;;;6131100;23;19990;-79
2022/04/27 07:13:13;;;;;;;;;;;9.10;71.70;;;;;;6176150;23;19912;-79
2022/04/27 07:16:22;;;;;;;;;;;9.10;71.60;;;;;;6187470;23;19920;-79
2022/04/27 07:22:33;;;;;;;;;;;9.20;69.70;;;;;;6177714;23;19912;-80
2022/04/27 07:40:33;;;;;;;;;;;9.80;67.10;;;;;;5842264;24;19991;-81
2022/04/27 07:43:18;;;;;;;;;;;9.80;66.50;;;;;;5840160;24;19939;-80
2022/04/27 07:46:12;;;;;;;;;;;;;;;;;;;;;
2022/04/27 07:49:19;;;;;;;;;;;9.80;65.90;;;;;;5950384;24;19998;-85
2022/04/27 07:52:18;;;;;;;;;;;9.90;66.00;;;;;;5948874;24;19915;-81
2022/04/27 08:05:18;;;;;;;;;;;;;;;;;;;;;
2022/04/27 08:07:56;;;;;;;;;;;10.30;62.50;;;;;;6170236;23;20239;-78
2022/04/27 08:10:25;;;;;;;;;;;10.30;63.20;;;;;;6165510;23;19912;-79
2022/04/27 08:12:50;;;;;;;;;;;10.30;62.70;;;;;;6164242;23;19912;-76
2022/04/27 08:15:48;;;;;;;;;;;10.50;63.60;;;;;;6166940;23;20381;-79
2022/04/27 08:18:19;;;;;;;;;;;10.60;63.10;;;;;;6165343;23;19920;-80
2022/04/27 08:26:58;;;;;;;;;;;10.60;61.70;;;;;;6154816;23;19984;-78
2022/04/27 08:32:46;;;;;;;;;;;;;;;;;;;;;
2022/04/27 08:35:33;;;;;;;;;;;11.00;60.60;;;;;;6123722;23;19913;-79
2022/04/27 08:38:39;;;;;;;;;;;11.10;61.50;;;;;;6106941;23;20273;-82
2022/04/27 08:45:03;;;;;;;;;;;11.30;60.70;;;;;;6038173;23;19913;-80
2022/04/27 08:58:15;;;;;;;;;;;11.70;58.50;;;;;;6096113;23;19924;-81
2022/04/27 09:01:22;;;;;;;;;;;;;;;;;;;;;
2022/04/27 09:11:22;;;;;;;;;;;11.70;57.40;;;;;;6064704;23;20022;-76
2022/04/27 09:13:53;;;;;;;;;;;11.80;58.20;;;;;;6051561;23;20338;-76
2022/04/27 09:16:21;;;;;;;;;;;11.90;58.00;;;;;;6123278;23;19996;-76
2022/04/27 09:21:53;;;;;;;;;;;11.80;57.90;;;;;;6159599;23;19920;-76
2022/04/27 09:24:40;;;;;;;;;;;11.90;58.50;;;;;;6135263;23;19912;-77
2022/04/27 09:27:09;;;;;;;;;;;11.90;58.40;;;;;;6121487;23;19967;-73
2022/04/27 09:29:53;;;;;;;;;;;;;;;;;;;;;
2022/04/27 10:08:18;;;;;;;;;;;12.90;53.70;;;;;;5816572;24;19944;-74
2022/04/27 10:21:06;;;;;;;;;;;13.10;54.90;;;;;;6214942;23;19911;-71
2022/04/27 10:24:04;;;;;;;;;;;13.20;54.20;;;;;;6187656;23;19923;-74
2022/04/27 10:37:06;;;;;;;;;;;14.00;53.10;;;;;;6220952;23;19943;-75
2022/04/27 10:39:34;;;;;;;;;;;14.20;52.50;;;;;;6212707;23;19944;-77
2022/04/27 10:58:16;;;;;;;;;;;14.10;49.60;;;;;;6173041;23;20016;-73
2022/04/27 11:11:46;;;;;;;;;;;14.40;50.30;;;;;;6183761;23;19911;-75
2022/04/27 11:18:04;;;;;;;;;;;14.40;50.00;;;;;;6064394;23;20290;-76
2022/04/27 11:20:46;;;;;;;;;;;14.30;50.50;;;;;;6041450;23;19913;-79
2022/04/27 11:23:42;;;;;;;;;;;14.30;50.50;;;;;;6040718;23;19917;-79
2022/04/27 11:26:54;;;;;;;;;;;14.30;49.90;;;;;;6113793;23;19972;-80
2022/04/27 11:32:49;;;;;;;;;;;14.40;50.50;;;;;;6184416;23;19911;-76
2022/04/27 11:35:59;;;;;;;;;;;;;;;;;;;;;
2022/04/27 12:10:14;;;;;;;;;;;14.60;49.60;;;;;;6007574;23;19958;-73
2022/04/27 13:42:06;;;;;;;;;;;15.20;47.60;;;;;;6183899;22;19924;-75
2022/04/27 13:44:35;;;;;;;;;;;15.20;48.70;;;;;;6165488;23;19912;-77
2022/04/27 13:47:13;;;;;;;;;;;15.10;48.40;;;;;;6142645;23;19950;-78
2022/04/27 13:49:39;;;;;;;;;;;15.10;48.50;;;;;;6163679;23;19912;-72
2022/04/27 13:52:05;;;;;;;;;;;15.10;49.80;;;;;;6165625;23;19912;-74
2022/04/27 13:54:30;;;;;;;;;;;15.10;48.90;;;;;;6164993;23;19947;-72
2022/04/27 13:56:56;;;;;;;;;;;14.70;47.20;;;;;;6164371;23;20018;-74
2022/04/27 13:59:31;;;;;;;;;;;14.50;48.80;;;;;;6167441;23;19966;-76
2022/04/27 14:34:45;;;;;;;;;;;14.30;49.90;;;;;;6182888;23;19991;-75
2022/04/27 14:37:14;;;;;;;;;;;14.40;51.30;;;;;;6134609;23;19970;-76
2022/04/27 14:39:40;;;;;;;;;;;14.40;52.70;;;;;;6134172;23;20311;-75
2022/04/27 15:12:20;;;;;;;;;;;13.90;53.90;;;;;;6122707;23;19916;-75
2022/04/27 16:05:09;;;;;;;;;;;13.10;55.30;;;;;;6126804;23;19916;-79
2022/04/27 16:30:16;;;;;;;;;;;12.80;55.10;;;;;;6184277;23;19905;-73
2022/04/27 16:32:42;;;;;;;;;;;12.70;56.70;;;;;;6158443;23;19917;-74
2022/04/27 16:35:08;;;;;;;;;;;12.70;57.80;;;;;;6130868;23;19927;-72
2022/04/27 16:37:33;;;;;;;;;;;12.60;58.80;;;;;;6131396;23;19952;-74
2022/04/27 16:39:59;;;;;;;;;;;12.50;59.10;;;;;;6130629;23;19948;-75
2022/04/27 16:42:25;;;;;;;;;;;12.60;59.30;;;;;;6155875;23;20339;-73
2022/04/27 16:44:50;;;;;;;;;;;12.40;59.40;;;;;;6106885;23;19991;-75
2022/04/27 16:47:20;;;;;;;;;;;12.20;60.20;;;;;;6131049;23;19913;-75
2022/04/27 16:49:49;;;;;;;;;;;12.10;61.00;;;;;;6106853;23;20327;-75
2022/04/27 16:52:38;;;;;;;;;;;11.80;62.70;;;;;;6127828;23;19947;-76
2022/04/27 17:01:18;;;;;;;;;;;11.50;63.50;;;;;;6157041;23;19912;-78
2022/04/27 17:11:38;;;;;;;;;;;11.30;63.30;;;;;;6030941;23;19913;-74
2022/04/27 17:14:34;;;;;;;;;;;11.20;63.70;;;;;;5988574;23;19938;-75
2022/04/27 17:17:14;;;;;;;;;;;11.10;64.20;;;;;;5998724;23;19925;-79
2022/04/27 17:29:51;;;;;;;;;;;11.00;64.50;;;;;;5980894;24;19963;-82
2022/04/27 17:32:17;;;;;;;;;;;11.00;64.60;;;;;;5957193;23;19981;-81
2022/04/27 17:34:46;;;;;;;;;;;10.90;64.70;;;;;;5985365;23;20033;-78
2022/04/27 17:37:21;;;;;;;;;;;10.90;64.90;;;;;;5985692;23;19919;-80
2022/04/27 17:39:56;;;;;;;;;;;10.90;64.60;;;;;;6058860;23;19918;-80
2022/04/27 17:45:36;;;;;;;;;;;10.80;64.40;;;;;;6081977;23;19914;-79
2022/04/27 17:48:02;;;;;;;;;;;10.70;64.10;;;;;;6066338;23;19914;-79
2022/04/27 17:50:28;;;;;;;;;;;10.80;64.70;;;;;;6081139;23;19952;-77
2022/04/27 17:53:00;;;;;;;;;;;10.70;64.60;;;;;;6100375;23;19920;-81
2022/04/27 17:55:33;;;;;;;;;;;10.70;65.20;;;;;;6100839;23;20227;-77
2022/04/27 17:57:58;;;;;;;;;;;10.80;65.80;;;;;;6052753;23;20340;-80
2022/04/27 18:00:42;;;;;;;;;;;10.70;65.50;;;;;;6101213;23;19913;-78
2022/04/27 18:03:30;;;;;;;;;;;10.70;65.60;;;;;;6100571;23;20304;-80
2022/04/27 18:06:03;;;;;;;;;;;10.60;64.70;;;;;;6100668;23;20370;-79
2022/04/27 18:11:39;;;;;;;;;;;10.60;63.80;;;;;;6015416;23;19918;-78
2022/04/27 18:28:35;;;;;;;;;;;10.40;62.40;;;;;;6191959;23;19915;-78
2022/04/27 18:31:39;;;;;;;;;;;10.30;63.20;;;;;;6134722;23;19983;-81
2022/04/27 18:41:09;;;;;;;;;;;10.30;62.10;;;;;;5992892;24;19930;-76
2022/04/27 18:54:21;;;;;;;;;;;10.10;64.40;;;;;;6210594;23;20192;-75
2022/04/27 18:57:21;;;;;;;;;;;10.00;64.40;;;;;;6188503;23;19970;-77
2022/04/27 19:03:27;;;;;;;;;;;10.00;63.10;;;;;;6214384;23;19958;-76
2022/04/27 19:05:53;;;;;;;;;;;10.00;62.50;;;;;;6163677;23;19986;-76
2022/04/27 19:12:15;;;;;;;;;;;10.00;63.90;;;;;;6226865;23;20045;-77
2022/04/27 19:18:20;;;;;;;;;;;9.90;67.00;;;;;;6093922;23;19957;-77
2022/04/27 19:21:17;;;;;;;;;;;9.90;66.90;;;;;;6094280;23;19913;-82
2022/04/27 19:23:53;;;;;;;;;;;9.90;67.70;;;;;;6070065;23;19913;-79
2022/04/27 19:33:19;;;;;;;;;;;9.90;68.10;;;;;;6121083;23;19959;-77
2022/04/27 20:02:40;;;;;;;;;;;9.70;69.40;;;;;;6137698;23;20397;-75
2022/04/27 20:05:07;;;;;;;;;;;9.80;69.20;;;;;;6154369;23;19920;-76
2022/04/27 21:03:03;;;;;;;;;;;9.50;67.60;;;;;;6156227;23;19951;-77
